sensor_id;sensor_type;location;lat;lon;timestamp;P1;durP1;ratioP1;P2;durP2;ratioP2
27893;SDS011;15240;50.812;4.792;2024-03-08T00:02:14;39.30;;;21.90;;
27893;SDS011;15240;50.812;4.792;2024-03-08T00:04:40;40.90;;;22.70;;
27893;SDS011;15240;50.812;4.792;2024-03-08T00:07:07;38.40;;;22.37;;
27893;SDS011;15240;50.812;4.792;2024-03-08T00:09:33;39.47;;;21.57;;
27893;SDS011;15240;50.812;4.792;2024-03-08T00:11:59;37.87;;;21.90;;
27893;SDS011;15240;50.812;4.792;2024-03-08T00:14:25;40.73;;;21.97;;
27893;SDS011;15240;50.812;4.792;2024-03-08T00:16:51;39.60;;;22.40;;
27893;SDS011;15240;50.812;4.792;2024-03-08T00:19:18;40.17;;;21.70;;
27893;SDS011;15240;50.812;4.792;2024-03-08T00:21:44;40.03;;;21.63;;
27893;SDS011;15240;50.812;4.792;2024-03-08T00:24:10;38.47;;;22.20;;
27893;SDS011;15240;50.812;4.792;2024-03-08T00:26:37;38.60;;;22.10;;
27893;SDS011;15240;50.812;4.792;2024-03-08T00:29:03;39.13;;;22.57;;
27893;SDS011;15240;50.812;4.792;2024-03-08T00:31:30;36.27;;;20.43;;
27893;SDS011;15240;50.812;4.792;2024-03-08T00:33:57;37.93;;;22.63;;
27893;SDS011;15240;50.812;4.792;2024-03-08T00:36:23;39.97;;;22.50;;
27893;SDS011;15240;50.812;4.792;2024-03-08T00:38:50;37.47;;;22.00;;
27893;SDS011;15240;50.812;4.792;2024-03-08T00:41:16;40.77;;;22.80;;
27893;SDS011;15240;50.812;4.792;2024-03-08T00:43:42;43.10;;;24.07;;
27893;SDS011;15240;50.812;4.792;2024-03-08T00:46:08;39.63;;;22.80;;
27893;SDS011;15240;50.812;4.792;2024-03-08T00:48:34;40.40;;;22.63;;
27893;SDS011;15240;50.812;4.792;2024-03-08T00:51:02;39.27;;;24.07;;
27893;SDS011;15240;50.812;4.792;2024-03-08T00:53:28;37.67;;;22.87;;
27893;SDS011;15240;50.812;4.792;2024-03-08T00:55:55;40.50;;;24.00;;
27893;SDS011;15240;50.812;4.792;2024-03-08T00:58:21;42.20;;;24.33;;
27893;SDS011;15240;50.812;4.792;2024-03-08T01:00:48;41.97;;;24.87;;
27893;SDS011;15240;50.812;4.792;2024-03-08T01:03:14;39.70;;;22.83;;
27893;SDS011;15240;50.812;4.792;2024-03-08T01:05:41;44.00;;;24.87;;
27893;SDS011;15240;50.812;4.792;2024-03-08T01:08:07;41.63;;;24.50;;
27893;SDS011;15240;50.812;4.792;2024-03-08T01:10:36;43.77;;;23.27;;
27893;SDS011;15240;50.812;4.792;2024-03-08T01:13:03;42.07;;;25.57;;
27893;SDS011;15240;50.812;4.792;2024-03-08T01:15:30;44.00;;;24.97;;
27893;SDS011;15240;50.812;4.792;2024-03-08T01:17:56;41.13;;;24.23;;
27893;SDS011;15240;50.812;4.792;2024-03-08T01:20:22;45.23;;;27.13;;
27893;SDS011;15240;50.812;4.792;2024-03-08T01:22:48;44.67;;;27.20;;
27893;SDS011;15240;50.812;4.792;2024-03-08T01:25:14;46.10;;;26.77;;
27893;SDS011;15240;50.812;4.792;2024-03-08T01:27:40;43.50;;;27.33;;
27893;SDS011;15240;50.812;4.792;2024-03-08T01:30:06;43.97;;;24.57;;
27893;SDS011;15240;50.812;4.792;2024-03-08T01:32:34;43.83;;;27.17;;
27893;SDS011;15240;50.812;4.792;2024-03-08T01:35:00;44.97;;;26.17;;
27893;SDS011;15240;50.812;4.792;2024-03-08T01:37:28;42.27;;;26.93;;
27893;SDS011;15240;50.812;4.792;2024-03-08T01:39:54;42.20;;;27.90;;
27893;SDS011;15240;50.812;4.792;2024-03-08T01:42:20;48.07;;;27.87;;
27893;SDS011;15240;50.812;4.792;2024-03-08T01:44:47;44.30;;;27.90;;
27893;SDS011;15240;50.812;4.792;2024-03-08T01:47:14;46.50;;;27.00;;
27893;SDS011;15240;50.812;4.792;2024-03-08T01:49:40;45.90;;;27.70;;
27893;SDS011;15240;50.812;4.792;2024-03-08T01:52:07;44.23;;;28.67;;
27893;SDS011;15240;50.812;4.792;2024-03-08T01:54:33;45.00;;;27.93;;
27893;SDS011;15240;50.812;4.792;2024-03-08T01:57:00;45.47;;;27.93;;
27893;SDS011;15240;50.812;4.792;2024-03-08T01:59:27;46.57;;;28.57;;
27893;SDS011;15240;50.812;4.792;2024-03-08T02:01:56;44.40;;;29.13;;
27893;SDS011;15240;50.812;4.792;2024-03-08T02:04:27;46.13;;;27.83;;
27893;SDS011;15240;50.812;4.792;2024-03-08T02:06:53;44.17;;;28.03;;
27893;SDS011;15240;50.812;4.792;2024-03-08T02:09:19;48.07;;;28.47;;
27893;SDS011;15240;50.812;4.792;2024-03-08T02:11:45;49.07;;;31.33;;
27893;SDS011;15240;50.812;4.792;2024-03-08T02:14:11;47.00;;;30.07;;
27893;SDS011;15240;50.812;4.792;2024-03-08T02:16:37;46.43;;;29.57;;
27893;SDS011;15240;50.812;4.792;2024-03-08T02:19:04;48.07;;;29.87;;
27893;SDS011;15240;50.812;4.792;2024-03-08T02:21:34;49.03;;;29.93;;
27893;SDS011;15240;50.812;4.792;2024-03-08T02:24:01;47.97;;;28.93;;
27893;SDS011;15240;50.812;4.792;2024-03-08T02:26:27;46.60;;;30.80;;
27893;SDS011;15240;50.812;4.792;2024-03-08T02:28:53;46.17;;;29.13;;
27893;SDS011;15240;50.812;4.792;2024-03-08T02:31:19;51.47;;;30.67;;
27893;SDS011;15240;50.812;4.792;2024-03-08T02:33:48;47.87;;;30.10;;
27893;SDS011;15240;50.812;4.792;2024-03-08T02:36:14;50.83;;;31.17;;
27893;SDS011;15240;50.812;4.792;2024-03-08T02:38:41;44.70;;;28.13;;
27893;SDS011;15240;50.812;4.792;2024-03-08T02:41:07;50.60;;;31.97;;
27893;SDS011;15240;50.812;4.792;2024-03-08T02:43:33;50.23;;;32.23;;
27893;SDS011;15240;50.812;4.792;2024-03-08T02:46:00;47.30;;;29.97;;
27893;SDS011;15240;50.812;4.792;2024-03-08T02:48:26;49.67;;;32.90;;
27893;SDS011;15240;50.812;4.792;2024-03-08T02:50:52;49.47;;;31.73;;
27893;SDS011;15240;50.812;4.792;2024-03-08T02:53:18;49.50;;;30.17;;
27893;SDS011;15240;50.812;4.792;2024-03-08T02:55:45;49.77;;;31.83;;
27893;SDS011;15240;50.812;4.792;2024-03-08T02:58:11;45.40;;;27.97;;
27893;SDS011;15240;50.812;4.792;2024-03-08T03:00:39;49.17;;;31.20;;
27893;SDS011;15240;50.812;4.792;2024-03-08T03:03:06;49.57;;;32.47;;
27893;SDS011;15240;50.812;4.792;2024-03-08T03:05:32;46.90;;;30.23;;
27893;SDS011;15240;50.812;4.792;2024-03-08T03:08:01;49.17;;;31.10;;
27893;SDS011;15240;50.812;4.792;2024-03-08T03:10:33;50.17;;;31.57;;
27893;SDS011;15240;50.812;4.792;2024-03-08T03:13:00;51.93;;;29.93;;
27893;SDS011;15240;50.812;4.792;2024-03-08T03:15:26;47.60;;;31.37;;
27893;SDS011;15240;50.812;4.792;2024-03-08T03:17:52;47.33;;;31.37;;
27893;SDS011;15240;50.812;4.792;2024-03-08T03:20:18;48.73;;;30.67;;
27893;SDS011;15240;50.812;4.792;2024-03-08T03:22:48;49.97;;;31.17;;
27893;SDS011;15240;50.812;4.792;2024-03-08T03:25:18;53.67;;;32.70;;
27893;SDS011;15240;50.812;4.792;2024-03-08T03:27:48;53.53;;;33.57;;
27893;SDS011;15240;50.812;4.792;2024-03-08T03:30:15;49.73;;;30.70;;
27893;SDS011;15240;50.812;4.792;2024-03-08T03:32:49;51.53;;;29.93;;
27893;SDS011;15240;50.812;4.792;2024-03-08T03:35:19;51.67;;;34.03;;
27893;SDS011;15240;50.812;4.792;2024-03-08T03:37:45;52.00;;;31.63;;
27893;SDS011;15240;50.812;4.792;2024-03-08T03:40:26;53.70;;;34.40;;
27893;SDS011;15240;50.812;4.792;2024-03-08T03:42:55;54.83;;;32.37;;
27893;SDS011;15240;50.812;4.792;2024-03-08T03:45:23;52.13;;;30.90;;
27893;SDS011;15240;50.812;4.792;2024-03-08T03:47:49;50.50;;;31.53;;
27893;SDS011;15240;50.812;4.792;2024-03-08T03:50:15;52.03;;;32.27;;
27893;SDS011;15240;50.812;4.792;2024-03-08T03:52:42;51.07;;;32.77;;
27893;SDS011;15240;50.812;4.792;2024-03-08T03:55:08;54.63;;;33.63;;
27893;SDS011;15240;50.812;4.792;2024-03-08T03:57:37;50.00;;;30.37;;
27893;SDS011;15240;50.812;4.792;2024-03-08T04:00:03;50.87;;;31.93;;
27893;SDS011;15240;50.812;4.792;2024-03-08T04:02:30;51.77;;;33.40;;
27893;SDS011;15240;50.812;4.792;2024-03-08T04:04:56;50.13;;;31.40;;
27893;SDS011;15240;50.812;4.792;2024-03-08T04:07:22;57.13;;;33.33;;
27893;SDS011;15240;50.812;4.792;2024-03-08T04:09:48;53.07;;;32.33;;
27893;SDS011;15240;50.812;4.792;2024-03-08T04:12:14;52.43;;;31.60;;
27893;SDS011;15240;50.812;4.792;2024-03-08T04:14:41;52.33;;;31.87;;
27893;SDS011;15240;50.812;4.792;2024-03-08T04:17:07;57.97;;;35.07;;
27893;SDS011;15240;50.812;4.792;2024-03-08T04:19:37;51.87;;;31.07;;
27893;SDS011;15240;50.812;4.792;2024-03-08T04:22:03;51.70;;;32.03;;
27893;SDS011;15240;50.812;4.792;2024-03-08T04:24:29;52.33;;;30.43;;
27893;SDS011;15240;50.812;4.792;2024-03-08T04:26:56;52.63;;;33.30;;
27893;SDS011;15240;50.812;4.792;2024-03-08T04:29:22;50.20;;;30.77;;
27893;SDS011;15240;50.812;4.792;2024-03-08T04:31:49;51.30;;;32.87;;
27893;SDS011;15240;50.812;4.792;2024-03-08T04:34:19;50.43;;;30.87;;
27893;SDS011;15240;50.812;4.792;2024-03-08T04:36:47;49.63;;;31.80;;
27893;SDS011;15240;50.812;4.792;2024-03-08T04:39:13;55.40;;;32.67;;
27893;SDS011;15240;50.812;4.792;2024-03-08T04:41:40;53.10;;;32.17;;
27893;SDS011;15240;50.812;4.792;2024-03-08T04:44:08;51.37;;;29.90;;
27893;SDS011;15240;50.812;4.792;2024-03-08T04:46:34;51.00;;;30.70;;
27893;SDS011;15240;50.812;4.792;2024-03-08T04:49:00;54.13;;;32.23;;
27893;SDS011;15240;50.812;4.792;2024-03-08T04:51:26;57.17;;;34.17;;
27893;SDS011;15240;50.812;4.792;2024-03-08T04:53:52;50.93;;;33.07;;
27893;SDS011;15240;50.812;4.792;2024-03-08T04:56:18;54.83;;;32.70;;
27893;SDS011;15240;50.812;4.792;2024-03-08T04:58:45;52.97;;;32.10;;
27893;SDS011;15240;50.812;4.792;2024-03-08T05:01:14;49.03;;;31.13;;
27893;SDS011;15240;50.812;4.792;2024-03-08T05:03:40;54.53;;;33.70;;
27893;SDS011;15240;50.812;4.792;2024-03-08T05:06:07;52.27;;;31.70;;
27893;SDS011;15240;50.812;4.792;2024-03-08T05:08:33;51.90;;;32.60;;
27893;SDS011;15240;50.812;4.792;2024-03-08T05:10:59;54.27;;;32.37;;
27893;SDS011;15240;50.812;4.792;2024-03-08T05:13:29;55.33;;;32.57;;
27893;SDS011;15240;50.812;4.792;2024-03-08T05:15:56;53.97;;;32.13;;
27893;SDS011;15240;50.812;4.792;2024-03-08T05:18:25;50.23;;;32.50;;
27893;SDS011;15240;50.812;4.792;2024-03-08T05:20:53;55.20;;;31.70;;
27893;SDS011;15240;50.812;4.792;2024-03-08T05:23:19;50.90;;;30.67;;
27893;SDS011;15240;50.812;4.792;2024-03-08T05:25:47;52.70;;;31.77;;
27893;SDS011;15240;50.812;4.792;2024-03-08T05:28:13;54.43;;;31.50;;
27893;SDS011;15240;50.812;4.792;2024-03-08T05:30:39;51.50;;;31.10;;
27893;SDS011;15240;50.812;4.792;2024-03-08T05:33:05;52.40;;;30.60;;
27893;SDS011;15240;50.812;4.792;2024-03-08T05:35:35;51.70;;;31.80;;
27893;SDS011;15240;50.812;4.792;2024-03-08T05:38:01;56.40;;;31.87;;
27893;SDS011;15240;50.812;4.792;2024-03-08T05:40:27;52.40;;;32.07;;
27893;SDS011;15240;50.812;4.792;2024-03-08T05:42:57;52.80;;;31.53;;
27893;SDS011;15240;50.812;4.792;2024-03-08T05:45:23;52.73;;;31.47;;
27893;SDS011;15240;50.812;4.792;2024-03-08T05:47:50;52.60;;;32.03;;
27893;SDS011;15240;50.812;4.792;2024-03-08T05:50:17;54.87;;;30.97;;
27893;SDS011;15240;50.812;4.792;2024-03-08T05:52:43;52.57;;;32.33;;
27893;SDS011;15240;50.812;4.792;2024-03-08T05:55:09;51.33;;;31.77;;
27893;SDS011;15240;50.812;4.792;2024-03-08T05:57:36;55.27;;;31.37;;
27893;SDS011;15240;50.812;4.792;2024-03-08T06:00:05;52.73;;;32.37;;
27893;SDS011;15240;50.812;4.792;2024-03-08T06:02:31;54.20;;;30.83;;
27893;SDS011;15240;50.812;4.792;2024-03-08T06:04:58;54.60;;;30.10;;
27893;SDS011;15240;50.812;4.792;2024-03-08T06:07:27;52.70;;;30.87;;
27893;SDS011;15240;50.812;4.792;2024-03-08T06:09:53;54.07;;;31.70;;
27893;SDS011;15240;50.812;4.792;2024-03-08T06:12:19;56.13;;;33.87;;
27893;SDS011;15240;50.812;4.792;2024-03-08T06:14:45;51.23;;;30.50;;
27893;SDS011;15240;50.812;4.792;2024-03-08T06:17:11;53.43;;;30.70;;
27893;SDS011;15240;50.812;4.792;2024-03-08T06:19:37;57.07;;;31.27;;
27893;SDS011;15240;50.812;4.792;2024-03-08T06:22:03;57.17;;;33.47;;
27893;SDS011;15240;50.812;4.792;2024-03-08T06:24:31;54.27;;;31.17;;
27893;SDS011;15240;50.812;4.792;2024-03-08T06:26:57;54.40;;;32.00;;
27893;SDS011;15240;50.812;4.792;2024-03-08T06:29:23;55.83;;;32.87;;
27893;SDS011;15240;50.812;4.792;2024-03-08T06:31:50;53.67;;;30.87;;
27893;SDS011;15240;50.812;4.792;2024-03-08T06:34:16;54.67;;;32.03;;
27893;SDS011;15240;50.812;4.792;2024-03-08T06:36:43;54.57;;;32.00;;
27893;SDS011;15240;50.812;4.792;2024-03-08T06:39:09;55.90;;;33.03;;
27893;SDS011;15240;50.812;4.792;2024-03-08T06:41:38;48.40;;;30.83;;
27893;SDS011;15240;50.812;4.792;2024-03-08T06:44:04;52.50;;;29.23;;
27893;SDS011;15240;50.812;4.792;2024-03-08T06:46:32;53.90;;;30.80;;
27893;SDS011;15240;50.812;4.792;2024-03-08T06:48:59;51.50;;;29.73;;
27893;SDS011;15240;50.812;4.792;2024-03-08T06:51:25;50.20;;;32.10;;
27893;SDS011;15240;50.812;4.792;2024-03-08T06:53:51;52.03;;;30.17;;
27893;SDS011;15240;50.812;4.792;2024-03-08T06:56:18;49.97;;;30.97;;
27893;SDS011;15240;50.812;4.792;2024-03-08T06:58:44;50.77;;;29.97;;
27893;SDS011;15240;50.812;4.792;2024-03-08T07:01:10;50.97;;;30.77;;
27893;SDS011;15240;50.812;4.792;2024-03-08T07:03:39;48.27;;;28.90;;
27893;SDS011;15240;50.812;4.792;2024-03-08T07:06:09;49.40;;;30.20;;
27893;SDS011;15240;50.812;4.792;2024-03-08T07:08:35;50.27;;;29.43;;
27893;SDS011;15240;50.812;4.792;2024-03-08T07:11:01;46.40;;;29.43;;
27893;SDS011;15240;50.812;4.792;2024-03-08T07:13:29;49.40;;;28.73;;
27893;SDS011;15240;50.812;4.792;2024-03-08T07:15:55;44.70;;;27.57;;
27893;SDS011;15240;50.812;4.792;2024-03-08T07:18:21;45.67;;;28.13;;
27893;SDS011;15240;50.812;4.792;2024-03-08T07:20:47;44.33;;;26.57;;
27893;SDS011;15240;50.812;4.792;2024-03-08T07:23:14;45.73;;;28.50;;
27893;SDS011;15240;50.812;4.792;2024-03-08T07:26:00;42.27;;;26.63;;
27893;SDS011;15240;50.812;4.792;2024-03-08T07:28:27;46.27;;;28.77;;
27893;SDS011;15240;50.812;4.792;2024-03-08T07:30:55;40.07;;;25.70;;
27893;SDS011;15240;50.812;4.792;2024-03-08T07:33:34;45.57;;;28.07;;
27893;SDS011;15240;50.812;4.792;2024-03-08T07:36:00;41.33;;;27.50;;
27893;SDS011;15240;50.812;4.792;2024-03-08T07:38:26;42.00;;;26.37;;
27893;SDS011;15240;50.812;4.792;2024-03-08T07:40:52;45.23;;;26.47;;
27893;SDS011;15240;50.812;4.792;2024-03-08T07:43:18;45.33;;;29.03;;
27893;SDS011;15240;50.812;4.792;2024-03-08T07:45:47;45.80;;;27.17;;
27893;SDS011;15240;50.812;4.792;2024-03-08T07:48:13;43.60;;;27.10;;
27893;SDS011;15240;50.812;4.792;2024-03-08T07:50:39;42.53;;;26.87;;
27893;SDS011;15240;50.812;4.792;2024-03-08T07:53:06;41.70;;;27.20;;
27893;SDS011;15240;50.812;4.792;2024-03-08T07:55:32;41.37;;;26.27;;
27893;SDS011;15240;50.812;4.792;2024-03-08T07:57:59;41.13;;;26.53;;
27893;SDS011;15240;50.812;4.792;2024-03-08T08:00:25;39.17;;;26.23;;
27893;SDS011;15240;50.812;4.792;2024-03-08T08:02:52;40.20;;;25.23;;
27893;SDS011;15240;50.812;4.792;2024-03-08T08:05:19;44.63;;;28.37;;
27893;SDS011;15240;50.812;4.792;2024-03-08T08:07:45;40.30;;;24.30;;
27893;SDS011;15240;50.812;4.792;2024-03-08T08:10:12;39.63;;;27.03;;
27893;SDS011;15240;50.812;4.792;2024-03-08T08:12:49;43.80;;;25.03;;
27893;SDS011;15240;50.812;4.792;2024-03-08T08:15:16;40.90;;;24.13;;
27893;SDS011;15240;50.812;4.792;2024-03-08T08:17:45;40.17;;;23.50;;
27893;SDS011;15240;50.812;4.792;2024-03-08T08:20:12;42.27;;;25.50;;
27893;SDS011;15240;50.812;4.792;2024-03-08T08:22:39;38.57;;;24.33;;
27893;SDS011;15240;50.812;4.792;2024-03-08T08:25:06;39.50;;;25.07;;
27893;SDS011;15240;50.812;4.792;2024-03-08T08:27:32;37.67;;;25.10;;
27893;SDS011;15240;50.812;4.792;2024-03-08T08:29:58;35.43;;;24.00;;
27893;SDS011;15240;50.812;4.792;2024-03-08T08:32:25;39.00;;;23.43;;
27893;SDS011;15240;50.812;4.792;2024-03-08T08:34:51;36.73;;;23.23;;
27893;SDS011;15240;50.812;4.792;2024-03-08T08:37:17;40.57;;;24.93;;
27893;SDS011;15240;50.812;4.792;2024-03-08T08:39:44;34.47;;;22.87;;
27893;SDS011;15240;50.812;4.792;2024-03-08T08:42:10;33.33;;;21.97;;
27893;SDS011;15240;50.812;4.792;2024-03-08T08:44:36;38.50;;;23.27;;
27893;SDS011;15240;50.812;4.792;2024-03-08T08:47:02;35.17;;;24.13;;
27893;SDS011;15240;50.812;4.792;2024-03-08T08:49:29;36.27;;;23.23;;
27893;SDS011;15240;50.812;4.792;2024-03-08T08:51:56;36.70;;;23.87;;
27893;SDS011;15240;50.812;4.792;2024-03-08T08:54:23;35.03;;;23.47;;
27893;SDS011;15240;50.812;4.792;2024-03-08T08:56:50;33.97;;;22.57;;
27893;SDS011;15240;50.812;4.792;2024-03-08T08:59:16;35.53;;;22.73;;
27893;SDS011;15240;50.812;4.792;2024-03-08T09:01:45;38.77;;;23.93;;
27893;SDS011;15240;50.812;4.792;2024-03-08T09:04:12;35.27;;;23.53;;
27893;SDS011;15240;50.812;4.792;2024-03-08T09:06:38;38.30;;;23.33;;
27893;SDS011;15240;50.812;4.792;2024-03-08T09:09:07;33.40;;;21.30;;
27893;SDS011;15240;50.812;4.792;2024-03-08T09:11:34;36.10;;;22.07;;
27893;SDS011;15240;50.812;4.792;2024-03-08T09:14:00;34.13;;;21.37;;
27893;SDS011;15240;50.812;4.792;2024-03-08T09:16:30;36.23;;;24.33;;
27893;SDS011;15240;50.812;4.792;2024-03-08T09:18:58;35.60;;;23.43;;
27893;SDS011;15240;50.812;4.792;2024-03-08T09:21:24;33.93;;;21.90;;
27893;SDS011;15240;50.812;4.792;2024-03-08T09:23:52;34.53;;;23.13;;
27893;SDS011;15240;50.812;4.792;2024-03-08T09:26:18;34.97;;;21.47;;
27893;SDS011;15240;50.812;4.792;2024-03-08T09:28:44;35.03;;;22.03;;
27893;SDS011;15240;50.812;4.792;2024-03-08T09:31:11;33.63;;;22.70;;
27893;SDS011;15240;50.812;4.792;2024-03-08T09:33:37;33.90;;;21.83;;
27893;SDS011;15240;50.812;4.792;2024-03-08T09:36:05;36.00;;;23.23;;
27893;SDS011;15240;50.812;4.792;2024-03-08T09:38:32;33.87;;;22.17;;
27893;SDS011;15240;50.812;4.792;2024-03-08T09:40:59;33.47;;;22.33;;
27893;SDS011;15240;50.812;4.792;2024-03-08T09:43:26;32.47;;;20.60;;
27893;SDS011;15240;50.812;4.792;2024-03-08T09:45:53;33.63;;;22.53;;
27893;SDS011;15240;50.812;4.792;2024-03-08T09:48:20;34.80;;;22.40;;
27893;SDS011;15240;50.812;4.792;2024-03-08T09:50:47;31.27;;;20.33;;
27893;SDS011;15240;50.812;4.792;2024-03-08T09:53:14;32.77;;;21.77;;
27893;SDS011;15240;50.812;4.792;2024-03-08T09:55:41;33.27;;;21.10;;
27893;SDS011;15240;50.812;4.792;2024-03-08T09:58:10;35.00;;;22.63;;
27893;SDS011;15240;50.812;4.792;2024-03-08T10:00:55;33.60;;;22.47;;
27893;SDS011;15240;50.812;4.792;2024-03-08T10:03:22;33.03;;;20.60;;
27893;SDS011;15240;50.812;4.792;2024-03-08T10:05:51;35.60;;;21.63;;
27893;SDS011;15240;50.812;4.792;2024-03-08T10:08:17;33.40;;;21.10;;
27893;SDS011;15240;50.812;4.792;2024-03-08T10:10:44;34.97;;;22.50;;
27893;SDS011;15240;50.812;4.792;2024-03-08T10:13:10;34.23;;;21.40;;
27893;SDS011;15240;50.812;4.792;2024-03-08T10:15:37;33.27;;;23.00;;
27893;SDS011;15240;50.812;4.792;2024-03-08T10:18:06;39.73;;;21.70;;
27893;SDS011;15240;50.812;4.792;2024-03-08T10:20:33;37.93;;;23.90;;
27893;SDS011;15240;50.812;4.792;2024-03-08T10:23:03;34.10;;;22.93;;
27893;SDS011;15240;50.812;4.792;2024-03-08T10:25:32;35.40;;;22.27;;
27893;SDS011;15240;50.812;4.792;2024-03-08T10:27:59;30.67;;;20.27;;
27893;SDS011;15240;50.812;4.792;2024-03-08T10:30:25;31.93;;;20.87;;
27893;SDS011;15240;50.812;4.792;2024-03-08T10:32:51;33.83;;;21.73;;
27893;SDS011;15240;50.812;4.792;2024-03-08T10:35:17;32.13;;;20.67;;
27893;SDS011;15240;50.812;4.792;2024-03-08T10:37:46;32.03;;;21.77;;
27893;SDS011;15240;50.812;4.792;2024-03-08T10:40:15;32.63;;;21.47;;
27893;SDS011;15240;50.812;4.792;2024-03-08T10:42:58;32.63;;;20.57;;
27893;SDS011;15240;50.812;4.792;2024-03-08T10:45:37;32.90;;;21.27;;
27893;SDS011;15240;50.812;4.792;2024-03-08T10:50:33;29.47;;;20.50;;
27893;SDS011;15240;50.812;4.792;2024-03-08T10:53:00;35.50;;;22.50;;
27893;SDS011;15240;50.812;4.792;2024-03-08T10:55:28;35.00;;;22.73;;
27893;SDS011;15240;50.812;4.792;2024-03-08T10:57:54;31.60;;;20.67;;
27893;SDS011;15240;50.812;4.792;2024-03-08T11:00:20;32.10;;;20.20;;
27893;SDS011;15240;50.812;4.792;2024-03-08T11:02:56;31.50;;;20.43;;
27893;SDS011;15240;50.812;4.792;2024-03-08T11:05:35;34.23;;;21.80;;
27893;SDS011;15240;50.812;4.792;2024-03-08T11:08:05;33.50;;;21.93;;
27893;SDS011;15240;50.812;4.792;2024-03-08T11:10:31;34.23;;;21.47;;
27893;SDS011;15240;50.812;4.792;2024-03-08T11:12:58;34.73;;;22.43;;
27893;SDS011;15240;50.812;4.792;2024-03-08T11:15:24;34.00;;;20.97;;
27893;SDS011;15240;50.812;4.792;2024-03-08T11:17:50;32.23;;;20.97;;
27893;SDS011;15240;50.812;4.792;2024-03-08T11:20:17;32.80;;;21.37;;
27893;SDS011;15240;50.812;4.792;2024-03-08T11:22:49;30.03;;;20.50;;
27893;SDS011;15240;50.812;4.792;2024-03-08T11:25:34;33.77;;;21.20;;
27893;SDS011;15240;50.812;4.792;2024-03-08T11:28:13;31.23;;;19.27;;
27893;SDS011;15240;50.812;4.792;2024-03-08T11:33:27;31.03;;;20.77;;
27893;SDS011;15240;50.812;4.792;2024-03-08T11:38:31;33.30;;;21.27;;
27893;SDS011;15240;50.812;4.792;2024-03-08T11:40:58;32.53;;;20.90;;
27893;SDS011;15240;50.812;4.792;2024-03-08T11:43:24;31.70;;;19.97;;
27893;SDS011;15240;50.812;4.792;2024-03-08T11:45:51;30.47;;;20.77;;
27893;SDS011;15240;50.812;4.792;2024-03-08T11:48:18;33.47;;;21.70;;
27893;SDS011;15240;50.812;4.792;2024-03-08T11:50:44;30.93;;;20.73;;
27893;SDS011;15240;50.812;4.792;2024-03-08T11:53:10;32.43;;;20.83;;
27893;SDS011;15240;50.812;4.792;2024-03-08T11:55:38;33.10;;;20.50;;
27893;SDS011;15240;50.812;4.792;2024-03-08T11:58:05;32.07;;;20.60;;
27893;SDS011;15240;50.812;4.792;2024-03-08T12:00:35;31.23;;;19.87;;
27893;SDS011;15240;50.812;4.792;2024-03-08T12:05:29;31.17;;;20.47;;
27893;SDS011;15240;50.812;4.792;2024-03-08T12:07:59;30.90;;;20.70;;
27893;SDS011;15240;50.812;4.792;2024-03-08T12:10:25;33.37;;;21.53;;
27893;SDS011;15240;50.812;4.792;2024-03-08T12:12:52;31.37;;;19.50;;
27893;SDS011;15240;50.812;4.792;2024-03-08T12:15:19;33.50;;;20.60;;
27893;SDS011;15240;50.812;4.792;2024-03-08T12:17:52;28.30;;;19.70;;
27893;SDS011;15240;50.812;4.792;2024-03-08T12:22:47;32.17;;;19.77;;
27893;SDS011;15240;50.812;4.792;2024-03-08T12:25:14;28.43;;;18.63;;
27893;SDS011;15240;50.812;4.792;2024-03-08T12:27:41;29.10;;;18.80;;
27893;SDS011;15240;50.812;4.792;2024-03-08T12:30:23;30.97;;;20.47;;
27893;SDS011;15240;50.812;4.792;2024-03-08T12:32:57;29.77;;;19.17;;
27893;SDS011;15240;50.812;4.792;2024-03-08T12:35:27;32.47;;;20.87;;
27893;SDS011;15240;50.812;4.792;2024-03-08T12:37:54;29.17;;;19.40;;
27893;SDS011;15240;50.812;4.792;2024-03-08T12:40:27;29.60;;;20.17;;
27893;SDS011;15240;50.812;4.792;2024-03-08T12:42:57;26.97;;;18.60;;
27893;SDS011;15240;50.812;4.792;2024-03-08T12:45:23;29.43;;;18.83;;
27893;SDS011;15240;50.812;4.792;2024-03-08T12:47:53;26.43;;;17.43;;
27893;SDS011;15240;50.812;4.792;2024-03-08T12:50:19;30.33;;;19.57;;
27893;SDS011;15240;50.812;4.792;2024-03-08T12:52:46;28.60;;;19.80;;
27893;SDS011;15240;50.812;4.792;2024-03-08T12:55:13;27.63;;;19.30;;
27893;SDS011;15240;50.812;4.792;2024-03-08T12:57:41;27.33;;;17.83;;
27893;SDS011;15240;50.812;4.792;2024-03-08T13:00:07;30.20;;;19.97;;
27893;SDS011;15240;50.812;4.792;2024-03-08T13:02:38;28.07;;;18.43;;
27893;SDS011;15240;50.812;4.792;2024-03-08T13:05:05;30.80;;;19.23;;
27893;SDS011;15240;50.812;4.792;2024-03-08T13:07:34;26.43;;;18.50;;
27893;SDS011;15240;50.812;4.792;2024-03-08T13:10:00;27.73;;;19.13;;
27893;SDS011;15240;50.812;4.792;2024-03-08T13:12:27;25.53;;;17.80;;
27893;SDS011;15240;50.812;4.792;2024-03-08T13:14:53;28.03;;;18.77;;
27893;SDS011;15240;50.812;4.792;2024-03-08T13:17:21;26.17;;;16.57;;
27893;SDS011;15240;50.812;4.792;2024-03-08T13:19:47;25.37;;;17.20;;
27893;SDS011;15240;50.812;4.792;2024-03-08T13:22:13;25.27;;;17.77;;
27893;SDS011;15240;50.812;4.792;2024-03-08T13:24:44;26.93;;;18.27;;
27893;SDS011;15240;50.812;4.792;2024-03-08T13:27:10;28.13;;;18.03;;
27893;SDS011;15240;50.812;4.792;2024-03-08T13:29:47;27.27;;;18.77;;
27893;SDS011;15240;50.812;4.792;2024-03-08T13:32:14;25.93;;;17.50;;
27893;SDS011;15240;50.812;4.792;2024-03-08T13:34:41;28.40;;;18.13;;
27893;SDS011;15240;50.812;4.792;2024-03-08T13:37:08;25.73;;;16.93;;
27893;SDS011;15240;50.812;4.792;2024-03-08T13:39:35;25.13;;;15.03;;
27893;SDS011;15240;50.812;4.792;2024-03-08T13:42:12;22.00;;;14.77;;
27893;SDS011;15240;50.812;4.792;2024-03-08T13:44:44;23.10;;;15.53;;
27893;SDS011;15240;50.812;4.792;2024-03-08T13:47:13;18.93;;;12.87;;
27893;SDS011;15240;50.812;4.792;2024-03-08T13:49:39;19.30;;;12.63;;
27893;SDS011;15240;50.812;4.792;2024-03-08T13:52:06;20.87;;;12.70;;
27893;SDS011;15240;50.812;4.792;2024-03-08T13:54:33;23.80;;;14.50;;
27893;SDS011;15240;50.812;4.792;2024-03-08T13:57:00;23.63;;;15.23;;
27893;SDS011;15240;50.812;4.792;2024-03-08T13:59:29;22.23;;;14.83;;
27893;SDS011;15240;50.812;4.792;2024-03-08T14:01:55;26.77;;;15.93;;
27893;SDS011;15240;50.812;4.792;2024-03-08T14:04:22;20.93;;;14.13;;
27893;SDS011;15240;50.812;4.792;2024-03-08T14:06:49;21.93;;;13.53;;
27893;SDS011;15240;50.812;4.792;2024-03-08T14:09:21;22.23;;;14.13;;
27893;SDS011;15240;50.812;4.792;2024-03-08T14:11:49;22.97;;;14.37;;
27893;SDS011;15240;50.812;4.792;2024-03-08T14:14:18;20.30;;;14.23;;
27893;SDS011;15240;50.812;4.792;2024-03-08T14:16:45;22.53;;;14.37;;
27893;SDS011;15240;50.812;4.792;2024-03-08T14:19:11;24.90;;;14.23;;
27893;SDS011;15240;50.812;4.792;2024-03-08T14:21:39;25.73;;;15.47;;
27893;SDS011;15240;50.812;4.792;2024-03-08T14:24:07;23.17;;;15.23;;
27893;SDS011;15240;50.812;4.792;2024-03-08T14:26:33;22.00;;;15.40;;
27893;SDS011;15240;50.812;4.792;2024-03-08T14:29:00;23.03;;;15.37;;
27893;SDS011;15240;50.812;4.792;2024-03-08T14:31:26;23.80;;;15.20;;
27893;SDS011;15240;50.812;4.792;2024-03-08T14:33:53;24.67;;;15.70;;
27893;SDS011;15240;50.812;4.792;2024-03-08T14:36:19;23.80;;;16.13;;